createdAt,value
2019-01-18T00:00:45.002Z,7.62
2019-01-18T00:01:50.168Z,7.28
2019-01-18T00:02:55.276Z,8.13
2019-01-18T00:04:00.309Z,7.20
2019-01-18T00:05:06.119Z,9.08
2019-01-18T00:06:11.222Z,8.15
2019-01-18T00:07:16.935Z,8.25
2019-01-18T00:08:23.183Z,9.43
2019-01-18T00:09:28.569Z,8.50
2019-01-18T00:10:34.129Z,7.35
2019-01-18T00:11:39.243Z,7.85
2019-01-18T00:12:44.279Z,8.85
2019-01-18T00:13:49.591Z,7.83
2019-01-18T00:14:55.341Z,7.95
2019-01-18T00:16:00.440Z,8.03
2019-01-18T00:17:05.976Z,8.85
2019-01-18T00:18:11.392Z,8.50
2019-01-18T00:19:16.844Z,8.65
2019-01-18T00:20:22.238Z,7.85
2019-01-18T00:21:27.588Z,8.43
2019-01-18T00:22:33.046Z,8.33
2019-01-18T00:23:37.984Z,7.75
2019-01-18T00:24:43.291Z,8.10
2019-01-18T00:25:48.666Z,8.03
2019-01-18T00:26:53.694Z,8.45
2019-01-18T00:27:58.792Z,7.65
2019-01-18T00:29:03.883Z,7.60
2019-01-18T00:30:09.522Z,7.72
2019-01-18T00:31:15.227Z,7.62
2019-01-18T00:32:20.265Z,7.75
2019-01-18T00:33:26.003Z,8.45
2019-01-18T00:34:31.134Z,8.23
2019-01-18T00:35:36.196Z,8.08
2019-01-18T00:36:44.293Z,7.30
2019-01-18T00:37:49.657Z,7.53
2019-01-18T00:38:54.740Z,7.75
2019-01-18T00:40:00.388Z,7.45
2019-01-18T00:41:06.012Z,7.35
2019-01-18T00:42:11.214Z,7.40
2019-01-18T00:43:16.585Z,7.55
2019-01-18T00:44:22.180Z,7.97
2019-01-18T00:45:27.857Z,7.28
2019-01-18T00:46:32.950Z,7.20
2019-01-18T00:47:38.034Z,7.60
2019-01-18T00:48:43.105Z,8.03
2019-01-18T00:49:48.153Z,7.60
2019-01-18T00:50:53.555Z,7.25
2019-01-18T00:51:58.504Z,7.70
2019-01-18T00:53:03.851Z,8.50
2019-01-18T00:54:08.846Z,6.50
2019-01-18T00:55:14.259Z,6.80
2019-01-18T00:56:19.538Z,6.85
2019-01-18T00:57:25.145Z,6.80
2019-01-18T00:58:30.220Z,7.10
2019-01-18T00:59:36.406Z,6.62
2019-01-18T01:00:41.792Z,6.65
2019-01-18T01:03:51.490Z,6.08
2019-01-18T01:04:56.506Z,6.45
2019-01-18T01:06:02.122Z,6.10
2019-01-18T01:07:07.128Z,5.40
2019-01-18T01:08:12.213Z,7.05
2019-01-18T01:09:17.172Z,6.97
2019-01-18T01:10:23.304Z,6.80
2019-01-18T01:11:28.668Z,6.70
2019-01-18T01:12:33.717Z,5.95
2019-01-18T01:13:38.788Z,6.60
2019-01-18T01:14:44.141Z,6.92
2019-01-18T01:15:49.370Z,7.33
2019-01-18T01:16:54.812Z,6.40
2019-01-18T01:18:00.524Z,6.10
2019-01-18T01:19:05.894Z,6.60
2019-01-18T01:20:12.414Z,6.10
2019-01-18T01:21:17.574Z,6.70
2019-01-18T01:22:22.892Z,6.70
2019-01-18T01:23:28.094Z,7.22
2019-01-18T01:24:33.124Z,8.03
2019-01-18T01:25:38.241Z,6.47
2019-01-18T01:26:43.421Z,7.85
2019-01-18T01:27:49.351Z,6.92
2019-01-18T01:28:54.369Z,6.92
2019-01-18T01:29:59.308Z,7.67
2019-01-18T01:31:05.519Z,8.90
2019-01-18T01:32:10.678Z,7.58
2019-01-18T01:33:15.703Z,8.90
2019-01-18T01:34:20.643Z,8.08
2019-01-18T01:35:26.125Z,8.55
2019-01-18T01:36:31.614Z,8.48
2019-01-18T01:37:37.036Z,8.30
2019-01-18T01:38:42.644Z,8.30
2019-01-18T01:39:48.028Z,7.97
2019-01-18T01:40:53.439Z,8.35
2019-01-18T01:41:58.700Z,9.53
2019-01-18T01:43:03.790Z,9.28
2019-01-18T01:44:09.171Z,10.00
2019-01-18T01:45:14.736Z,9.95
2019-01-18T01:46:19.761Z,9.45
2019-01-18T01:47:24.911Z,10.25
2019-01-18T01:48:29.857Z,10.15
2019-01-18T01:49:36.811Z,9.80
2019-01-18T01:50:41.919Z,10.30
2019-01-18T01:51:46.963Z,10.45
2019-01-18T01:52:52.325Z,11.00
2019-01-18T01:53:57.316Z,9.93
2019-01-18T01:55:02.573Z,10.50
2019-01-18T01:56:07.679Z,10.40
2019-01-18T01:57:12.692Z,11.18
2019-01-18T01:58:17.733Z,10.63
2019-01-18T01:59:22.753Z,11.12
2019-01-18T02:00:29.248Z,10.63
2019-01-18T02:01:34.280Z,11.65
2019-01-18T02:02:39.706Z,10.85
2019-01-18T02:03:44.688Z,9.75
2019-01-18T02:04:49.990Z,10.90
2019-01-18T02:05:55.299Z,10.63
2019-01-18T02:07:00.261Z,11.25
2019-01-18T02:08:05.809Z,10.98
2019-01-18T02:09:10.947Z,10.72
2019-01-18T02:10:17.337Z,11.40
2019-01-18T02:11:22.961Z,11.75
2019-01-18T02:12:28.918Z,10.65
2019-01-18T02:13:34.085Z,11.78
2019-01-18T02:14:39.037Z,10.58
2019-01-18T02:15:43.964Z,10.72
2019-01-18T02:16:49.418Z,11.95
2019-01-18T02:17:54.642Z,11.08
2019-01-18T02:18:59.608Z,10.98
2019-01-18T02:20:05.438Z,10.25
2019-01-18T02:21:10.732Z,11.12
2019-01-18T02:22:16.031Z,11.30
2019-01-18T02:23:21.142Z,10.43
2019-01-18T02:24:26.077Z,10.50
2019-01-18T02:25:32.430Z,10.40
2019-01-18T02:26:37.955Z,11.40
2019-01-18T02:27:46.532Z,10.78
2019-01-18T02:28:51.552Z,10.95
2019-01-18T02:29:56.944Z,10.03
2019-01-18T02:31:01.964Z,10.78
2019-01-18T02:32:07.641Z,10.72
2019-01-18T02:33:12.587Z,9.75
2019-01-18T02:34:17.653Z,10.25
2019-01-18T02:35:23.000Z,9.95
2019-01-18T02:36:28.462Z,10.65
2019-01-18T02:37:33.857Z,9.78
2019-01-18T02:38:39.171Z,9.25
2019-01-18T02:39:44.427Z,9.00
2019-01-18T02:40:49.360Z,10.23
2019-01-18T02:41:54.384Z,10.15
2019-01-18T02:42:59.338Z,8.95
2019-01-18T02:44:04.781Z,10.50
2019-01-18T02:45:11.276Z,8.93
2019-01-18T02:46:16.601Z,10.45
2019-01-18T02:47:21.723Z,9.35
2019-01-18T02:48:26.995Z,9.78
2019-01-18T02:49:32.032Z,9.65
2019-01-18T02:50:37.362Z,10.63
2019-01-18T02:51:42.715Z,9.05
2019-01-18T02:52:48.152Z,10.55
2019-01-18T02:53:53.267Z,8.83
2019-01-18T02:54:58.311Z,10.35
2019-01-18T02:56:03.401Z,9.13
2019-01-18T02:57:08.394Z,9.20
2019-01-18T02:58:13.346Z,9.88
2019-01-18T02:59:18.307Z,10.78
2019-01-18T03:00:24.527Z,10.30
2019-01-18T03:01:29.603Z,8.63
2019-01-18T03:02:34.641Z,10.03
2019-01-18T03:03:39.940Z,9.13
2019-01-18T03:04:45.134Z,10.08
2019-01-18T03:05:50.065Z,9.73
2019-01-18T03:06:55.325Z,9.55
2019-01-18T03:08:00.421Z,8.38
2019-01-18T03:09:09.183Z,9.38
2019-01-18T03:10:20.043Z,9.93
2019-01-18T03:11:25.127Z,10.08
2019-01-18T03:12:30.486Z,10.72
2019-01-18T03:13:35.425Z,9.83
2019-01-18T03:14:41.774Z,10.75
2019-01-18T03:15:47.058Z,8.95
2019-01-18T03:16:52.375Z,8.78
2019-01-18T03:17:57.423Z,9.80
2019-01-18T03:19:02.565Z,8.20
2019-01-18T03:20:09.876Z,9.28
2019-01-18T03:21:14.890Z,10.20
2019-01-18T03:22:19.908Z,10.18
2019-01-18T03:23:29.097Z,10.03
2019-01-18T03:24:34.055Z,9.75
2019-01-18T03:25:39.089Z,9.95
2019-01-18T03:26:44.029Z,10.08
2019-01-18T03:27:49.332Z,11.03
2019-01-18T03:28:54.355Z,10.30
2019-01-18T03:29:59.614Z,10.80
2019-01-18T03:31:04.746Z,9.28
2019-01-18T03:32:09.839Z,8.93
2019-01-18T03:33:15.274Z,10.20
2019-01-18T03:34:20.560Z,10.60
2019-01-18T03:35:25.908Z,10.03
2019-01-18T03:36:31.019Z,9.65
2019-01-18T03:37:36.121Z,10.00
2019-01-18T03:38:41.094Z,9.88
2019-01-18T03:39:46.024Z,9.68
2019-01-18T03:40:51.029Z,8.93
2019-01-18T03:41:55.997Z,10.08
2019-01-18T03:43:01.276Z,9.30
2019-01-18T03:44:06.457Z,9.73
2019-01-18T03:45:13.434Z,11.08
2019-01-18T03:46:18.469Z,8.83
2019-01-18T03:47:23.468Z,10.00
2019-01-18T03:48:28.791Z,9.80
2019-01-18T03:49:33.765Z,10.00
2019-01-18T03:50:38.893Z,9.43
2019-01-18T03:51:43.927Z,10.53
2019-01-18T03:52:48.896Z,8.83
2019-01-18T03:53:53.957Z,9.30
2019-01-18T03:54:58.987Z,10.25
2019-01-18T03:56:04.155Z,9.23
2019-01-18T03:57:09.460Z,9.98
2019-01-18T03:58:14.827Z,9.23
2019-01-18T03:59:19.852Z,10.82
2019-01-18T04:00:29.941Z,9.78
2019-01-18T04:01:35.014Z,9.73
2019-01-18T04:02:40.052Z,9.88
2019-01-18T04:03:45.179Z,10.45
2019-01-18T04:04:50.493Z,9.33
2019-01-18T04:05:55.780Z,9.83
2019-01-18T04:07:00.718Z,9.08
2019-01-18T04:08:06.029Z,10.50
2019-01-18T04:09:11.369Z,11.20
2019-01-18T04:10:17.884Z,10.25
2019-01-18T04:11:23.207Z,12.50
2019-01-18T04:12:28.742Z,9.30
2019-01-18T04:13:34.071Z,9.25
2019-01-18T04:14:39.726Z,8.85
2019-01-18T04:15:45.013Z,10.82
2019-01-18T04:16:51.729Z,10.40
2019-01-18T04:17:56.721Z,9.58
2019-01-18T04:19:01.684Z,9.80
2019-01-18T04:20:08.121Z,10.38
2019-01-18T04:21:13.086Z,10.55
2019-01-18T04:22:18.049Z,10.30
2019-01-18T04:23:22.987Z,10.32
2019-01-18T04:24:28.788Z,9.98
2019-01-18T04:25:34.636Z,11.05
2019-01-18T04:26:40.572Z,10.23
2019-01-18T04:27:45.961Z,10.85
2019-01-18T04:28:50.998Z,10.63
2019-01-18T04:29:56.017Z,11.85
2019-01-18T04:31:01.088Z,10.95
2019-01-18T04:32:06.821Z,10.30
2019-01-18T04:33:11.805Z,11.55
2019-01-18T04:34:17.528Z,9.60
2019-01-18T04:35:22.867Z,10.98
2019-01-18T04:36:28.184Z,11.00
2019-01-18T04:37:33.203Z,9.65
2019-01-18T04:38:38.306Z,10.70
2019-01-18T04:39:43.542Z,10.95
2019-01-18T04:40:48.553Z,10.60
2019-01-18T04:41:53.542Z,10.15
2019-01-18T04:42:58.583Z,10.03
2019-01-18T04:44:03.615Z,10.03
2019-01-18T04:45:09.341Z,10.60
2019-01-18T04:46:14.372Z,10.05
2019-01-18T04:47:19.437Z,10.32
2019-01-18T04:48:24.462Z,9.73
2019-01-18T04:49:29.409Z,10.80
2019-01-18T04:50:34.441Z,10.82
2019-01-18T04:51:39.467Z,9.80
2019-01-18T04:52:44.612Z,11.20
2019-01-18T04:53:49.608Z,11.00
2019-01-18T04:54:55.056Z,10.13
2019-01-18T04:56:00.034Z,10.43
2019-01-18T04:57:05.163Z,10.18
2019-01-18T04:58:10.379Z,10.35
2019-01-18T04:59:15.402Z,11.53
2019-01-18T05:00:22.396Z,11.43
2019-01-18T05:01:27.421Z,11.63
2019-01-18T05:02:33.042Z,11.95
2019-01-18T05:03:38.389Z,10.60
2019-01-18T05:04:43.347Z,10.78
2019-01-18T05:05:48.503Z,11.57
2019-01-18T05:06:53.519Z,11.15
2019-01-18T05:07:58.461Z,10.85
2019-01-18T05:09:05.246Z,10.88
2019-01-18T05:10:11.615Z,10.43
2019-01-18T05:11:17.017Z,10.55
2019-01-18T05:12:22.051Z,11.38
2019-01-18T05:13:27.134Z,10.70
2019-01-18T05:14:32.185Z,10.93
2019-01-18T05:15:37.548Z,10.48
2019-01-18T05:16:42.588Z,9.90
2019-01-18T05:17:47.672Z,10.63
2019-01-18T05:18:53.645Z,10.93
2019-01-18T05:19:59.357Z,15.35
2019-01-18T05:21:04.420Z,11.68
2019-01-18T05:22:09.817Z,10.40
2019-01-18T05:23:14.774Z,12.18
2019-01-18T05:24:20.058Z,11.50
2019-01-18T05:25:25.106Z,10.58
2019-01-18T05:26:30.141Z,11.00
2019-01-18T05:27:35.186Z,10.90
2019-01-18T05:28:40.312Z,10.15
2019-01-18T05:29:45.930Z,11.10
2019-01-18T05:30:51.031Z,10.38
2019-01-18T05:31:56.380Z,12.85
2019-01-18T05:33:01.762Z,11.60
2019-01-18T05:34:06.784Z,10.23
2019-01-18T05:35:12.239Z,10.20
2019-01-18T05:36:17.370Z,11.18
2019-01-18T05:37:22.394Z,10.65
2019-01-18T05:38:27.847Z,10.65
2019-01-18T05:39:32.801Z,10.58
2019-01-18T05:40:37.852Z,11.63
2019-01-18T05:41:43.175Z,11.40
2019-01-18T05:42:48.867Z,11.08
2019-01-18T05:43:54.442Z,13.60
2019-01-18T05:44:59.696Z,10.18
2019-01-18T05:46:04.899Z,11.03
2019-01-18T05:47:10.098Z,10.28
2019-01-18T05:48:15.114Z,11.88
2019-01-18T05:49:20.573Z,11.15
2019-01-18T05:50:27.605Z,11.18
2019-01-18T05:51:32.720Z,10.38
2019-01-18T05:52:37.860Z,10.95
2019-01-18T05:53:42.806Z,10.63
2019-01-18T05:54:48.082Z,10.40
2019-01-18T05:55:53.455Z,10.98
2019-01-18T05:56:58.777Z,10.20
2019-01-18T05:58:04.364Z,10.93
2019-01-18T05:59:09.313Z,11.65
2019-01-18T06:00:20.180Z,11.43
2019-01-18T06:01:26.005Z,11.85
2019-01-18T06:02:31.175Z,12.23
2019-01-18T06:03:36.556Z,12.20
2019-01-18T06:04:43.327Z,11.75
2019-01-18T06:05:48.342Z,11.63
2019-01-18T06:06:53.825Z,11.30
2019-01-18T06:07:58.830Z,11.48
2019-01-18T06:09:05.407Z,11.12
2019-01-18T06:10:10.499Z,11.35
2019-01-18T06:11:15.649Z,10.95
2019-01-18T06:12:20.682Z,11.55
2019-01-18T06:13:25.658Z,11.28
2019-01-18T06:14:31.030Z,10.85
2019-01-18T06:15:36.462Z,10.90
2019-01-18T06:16:41.383Z,11.68
2019-01-18T06:17:46.683Z,11.80
2019-01-18T06:18:51.691Z,11.12
2019-01-18T06:19:56.978Z,10.90
2019-01-18T06:21:03.121Z,12.18
2019-01-18T06:22:08.352Z,12.73
2019-01-18T06:23:13.327Z,10.25
2019-01-18T06:24:18.987Z,11.40
2019-01-18T06:25:24.036Z,12.37
2019-01-18T06:26:29.117Z,10.32
2019-01-18T06:27:34.236Z,10.55
2019-01-18T06:28:39.989Z,10.45
2019-01-18T06:29:45.267Z,11.50
2019-01-18T06:30:50.360Z,11.78
2019-01-18T06:31:56.000Z,11.85
2019-01-18T06:33:00.952Z,11.83
2019-01-18T06:34:06.167Z,12.75
2019-01-18T06:35:11.327Z,12.93
2019-01-18T06:36:16.725Z,11.95
2019-01-18T06:37:21.795Z,11.85
2019-01-18T06:38:26.829Z,11.83
2019-01-18T06:39:32.130Z,12.65
2019-01-18T06:40:37.351Z,11.65
2019-01-18T06:41:51.950Z,13.28
2019-01-18T06:42:57.048Z,12.30
2019-01-18T06:44:02.161Z,12.90
2019-01-18T06:45:09.069Z,12.00
2019-01-18T06:46:14.131Z,13.62
2019-01-18T06:47:19.266Z,12.82
2019-01-18T06:48:26.499Z,14.00
2019-01-18T06:49:31.469Z,17.10
2019-01-18T06:50:36.542Z,17.95
2019-01-18T06:51:42.090Z,18.45
2019-01-18T06:52:47.361Z,20.45
2019-01-18T06:53:52.408Z,24.30
2019-01-18T06:54:57.452Z,32.98
2019-01-18T06:56:02.815Z,37.98
2019-01-18T06:57:08.139Z,40.52
2019-01-18T06:58:13.189Z,40.15
2019-01-18T06:59:18.350Z,36.30
2019-01-18T07:00:31.506Z,36.15
2019-01-18T07:01:36.556Z,36.85
2019-01-18T07:02:41.852Z,37.17
2019-01-18T07:03:47.258Z,33.10
2019-01-18T07:04:52.206Z,32.98
2019-01-18T07:05:57.660Z,33.35
2019-01-18T07:07:03.155Z,28.95
2019-01-18T07:08:08.320Z,28.50
2019-01-18T07:09:13.490Z,27.20
2019-01-18T07:10:21.002Z,26.75
2019-01-18T07:11:25.931Z,25.05
2019-01-18T07:12:31.019Z,24.23
2019-01-18T07:13:35.989Z,23.50
2019-01-18T07:14:41.358Z,22.67
2019-01-18T07:15:46.737Z,22.98
2019-01-18T07:16:51.756Z,23.57
2019-01-18T07:17:57.141Z,22.42
2019-01-18T07:19:02.263Z,22.27
2019-01-18T07:20:09.501Z,21.60
2019-01-18T07:21:15.044Z,21.45
2019-01-18T07:22:20.108Z,19.67
2019-01-18T07:23:26.497Z,20.43
2019-01-18T07:24:31.452Z,19.23
2019-01-18T07:25:36.421Z,20.20
2019-01-18T07:26:41.434Z,20.35
2019-01-18T07:27:46.472Z,19.57
2019-01-18T07:28:51.839Z,19.70
2019-01-18T07:29:57.067Z,19.90
2019-01-18T07:31:02.223Z,38.17
2019-01-18T07:32:07.231Z,18.02
2019-01-18T07:33:16.734Z,19.07
2019-01-18T07:34:21.670Z,17.85
2019-01-18T07:35:26.918Z,17.65
2019-01-18T07:36:32.360Z,17.85
2019-01-18T07:37:37.701Z,20.27
2019-01-18T07:38:43.029Z,18.60
2019-01-18T07:39:48.078Z,18.00
2019-01-18T07:40:53.108Z,19.15
2019-01-18T07:41:58.296Z,19.70
2019-01-18T07:43:03.516Z,24.00
2019-01-18T07:44:08.642Z,25.12
2019-01-18T07:45:16.722Z,22.42
2019-01-18T07:46:22.006Z,24.75
2019-01-18T07:47:27.324Z,25.80
2019-01-18T07:48:32.276Z,24.25
2019-01-18T07:49:37.206Z,26.60
2019-01-18T07:50:42.245Z,27.52
2019-01-18T07:51:47.640Z,27.62
2019-01-18T07:52:52.934Z,30.62
2019-01-18T07:53:58.259Z,30.65
2019-01-18T07:55:03.327Z,29.50
2019-01-18T07:56:08.413Z,32.05
2019-01-18T07:57:13.361Z,30.75
2019-01-18T07:58:18.412Z,32.23
2019-01-18T07:59:23.631Z,34.03
2019-01-18T08:00:29.946Z,32.90
2019-01-18T08:01:34.945Z,31.85
2019-01-18T08:02:40.247Z,36.05
2019-01-18T08:03:45.249Z,37.95
2019-01-18T08:04:50.360Z,38.00
2019-01-18T08:05:55.492Z,41.75
2019-01-18T08:07:00.872Z,41.15
2019-01-18T08:08:06.194Z,45.48
2019-01-18T08:09:11.454Z,49.77
2019-01-18T08:10:17.853Z,48.48
2019-01-18T08:11:23.238Z,52.58
2019-01-18T08:12:28.327Z,50.83
2019-01-18T08:13:33.716Z,52.85
2019-01-18T08:14:38.935Z,52.98
2019-01-18T08:15:43.850Z,54.48
2019-01-18T08:16:48.849Z,54.55
2019-01-18T08:17:54.199Z,52.55
2019-01-18T08:18:59.540Z,52.10
2019-01-18T08:20:06.275Z,55.45
2019-01-18T08:21:11.673Z,51.08
2019-01-18T08:22:16.658Z,50.30
2019-01-18T08:23:22.142Z,51.28
2019-01-18T08:24:27.147Z,47.38
2019-01-18T08:25:33.152Z,45.35
2019-01-18T08:26:38.412Z,44.75
2019-01-18T08:27:43.507Z,38.67
2019-01-18T08:28:49.006Z,34.38
2019-01-18T08:29:54.082Z,34.48
2019-01-18T08:30:59.187Z,32.48
2019-01-18T08:32:04.758Z,31.33
2019-01-18T08:33:10.160Z,30.08
2019-01-18T08:34:15.095Z,27.40
2019-01-18T08:35:21.382Z,26.95
2019-01-18T08:36:26.590Z,25.95
2019-01-18T08:37:33.687Z,26.85
2019-01-18T08:38:38.621Z,24.52
2019-01-18T08:39:44.029Z,22.17
2019-01-18T08:40:49.320Z,19.57
2019-01-18T08:41:54.708Z,20.45
2019-01-18T08:42:59.903Z,21.15
2019-01-18T08:44:05.059Z,21.95
2019-01-18T08:45:12.938Z,22.05
2019-01-18T08:46:19.159Z,22.15
2019-01-18T08:47:24.158Z,20.77
2019-01-18T08:48:29.637Z,21.17
2019-01-18T08:49:35.004Z,20.88
2019-01-18T08:50:40.603Z,21.42
2019-01-18T08:51:45.615Z,20.48
2019-01-18T08:52:50.990Z,20.37
2019-01-18T08:53:56.380Z,19.45
2019-01-18T08:55:01.418Z,19.17
2019-01-18T08:56:08.316Z,17.75
2019-01-18T08:57:13.414Z,20.62
2019-01-18T08:58:18.425Z,19.62
2019-01-18T08:59:23.603Z,19.65
2019-01-18T09:00:29.113Z,19.85
2019-01-18T09:01:35.801Z,19.48
2019-01-18T09:02:41.238Z,20.57
2019-01-18T09:03:46.384Z,20.70
2019-01-18T09:04:51.817Z,19.73
2019-01-18T09:05:56.826Z,19.95
2019-01-18T09:07:01.866Z,20.17
2019-01-18T09:08:06.966Z,21.45
2019-01-18T09:09:12.031Z,17.90
2019-01-18T09:10:18.482Z,19.75
2019-01-18T09:11:23.950Z,20.32
2019-01-18T09:12:28.959Z,19.05
2019-01-18T09:13:34.108Z,20.30
2019-01-18T09:14:39.739Z,19.12
2019-01-18T09:15:44.723Z,20.25
2019-01-18T09:16:50.091Z,19.30
2019-01-18T09:17:55.465Z,20.68
2019-01-18T09:19:00.503Z,18.52
2019-01-18T09:20:07.723Z,19.27
2019-01-18T09:21:12.752Z,20.97
2019-01-18T09:22:17.817Z,20.85
2019-01-18T09:23:22.969Z,21.07
2019-01-18T09:24:28.360Z,22.05
2019-01-18T09:25:33.597Z,20.95
2019-01-18T09:26:39.294Z,21.30
2019-01-18T09:27:45.219Z,20.35
2019-01-18T09:28:50.525Z,22.30
2019-01-18T09:29:55.551Z,21.55
2019-01-18T09:31:00.663Z,22.80
2019-01-18T09:32:06.304Z,23.07
2019-01-18T09:33:11.405Z,22.52
2019-01-18T09:34:16.386Z,24.77
2019-01-18T09:35:22.793Z,23.42
2019-01-18T09:36:27.954Z,21.20
2019-01-18T09:37:32.956Z,23.80
2019-01-18T09:38:38.433Z,22.55
2019-01-18T09:39:43.380Z,23.32
2019-01-18T09:40:48.405Z,22.52
2019-01-18T09:41:53.387Z,21.57
2019-01-18T09:42:58.571Z,22.10
2019-01-18T09:44:03.629Z,22.20
2019-01-18T09:45:09.249Z,22.60
2019-01-18T09:46:14.518Z,22.10
2019-01-18T09:47:19.720Z,22.05
2019-01-18T09:48:24.819Z,22.73
2019-01-18T09:49:29.790Z,21.85
2019-01-18T09:50:34.875Z,20.97
2019-01-18T09:51:39.974Z,21.00
2019-01-18T09:52:45.073Z,20.25
2019-01-18T09:53:50.096Z,17.57
2019-01-18T09:54:55.438Z,18.40
2019-01-18T09:56:00.905Z,17.52
2019-01-18T09:57:05.995Z,17.35
2019-01-18T09:58:11.132Z,17.02
2019-01-18T09:59:16.194Z,17.00
2019-01-18T10:00:26.658Z,17.32
2019-01-18T10:01:31.669Z,16.42
2019-01-18T10:02:36.914Z,18.27
2019-01-18T10:03:41.876Z,16.82
2019-01-18T10:04:46.856Z,17.02
2019-01-18T10:05:51.908Z,15.60
2019-01-18T10:06:56.907Z,16.37
2019-01-18T10:08:02.368Z,17.27
2019-01-18T10:09:09.138Z,16.45
2019-01-18T10:10:16.752Z,17.05
2019-01-18T10:11:21.790Z,16.42
2019-01-18T10:12:26.796Z,17.15
2019-01-18T10:13:32.122Z,16.60
2019-01-18T10:14:37.284Z,16.30
2019-01-18T10:15:44.450Z,16.60
2019-01-18T10:16:49.678Z,16.67
2019-01-18T10:18:00.531Z,17.45
2019-01-18T10:19:01.746Z,17.17
2019-01-18T10:20:08.573Z,16.07
2019-01-18T10:21:13.614Z,19.00
2019-01-18T10:22:18.618Z,18.65
2019-01-18T10:23:23.581Z,17.23
2019-01-18T10:24:28.911Z,16.87
2019-01-18T10:25:34.305Z,18.17
2019-01-18T10:26:40.066Z,18.52
2019-01-18T10:27:45.300Z,17.77
2019-01-18T10:28:50.520Z,17.02
2019-01-18T10:29:56.437Z,18.60
2019-01-18T10:31:01.720Z,17.75
2019-01-18T10:32:07.111Z,16.80
2019-01-18T10:33:12.136Z,17.23
2019-01-18T10:34:17.792Z,16.93
2019-01-18T10:35:23.492Z,16.75
2019-01-18T10:36:28.572Z,17.85
2019-01-18T10:37:33.963Z,18.73
2019-01-18T10:38:39.656Z,17.40
2019-01-18T10:39:44.877Z,17.45
2019-01-18T10:40:50.151Z,17.30
2019-01-18T10:41:55.242Z,19.23
2019-01-18T10:43:00.386Z,18.48
2019-01-18T10:44:06.318Z,19.30
2019-01-18T10:45:12.151Z,19.95
2019-01-18T10:46:17.313Z,20.27
2019-01-18T10:47:23.096Z,20.70
2019-01-18T10:48:28.510Z,22.30
2019-01-18T10:49:33.499Z,20.65
2019-01-18T10:50:38.526Z,21.10
2019-01-18T10:51:43.743Z,20.65
2019-01-18T10:52:49.444Z,21.30
2019-01-18T10:53:55.063Z,21.65
2019-01-18T10:55:00.435Z,23.32
2019-01-18T10:56:05.555Z,22.17
2019-01-18T10:57:10.902Z,21.35
2019-01-18T10:58:16.218Z,21.95
2019-01-18T10:59:21.147Z,21.12
2019-01-18T11:00:32.185Z,20.40
2019-01-18T11:01:37.785Z,21.42
2019-01-18T11:02:42.888Z,21.40
2019-01-18T11:03:47.936Z,21.90
2019-01-18T11:04:52.955Z,21.00
2019-01-18T11:05:57.966Z,21.48
2019-01-18T11:07:03.193Z,21.73
2019-01-18T11:08:08.698Z,22.87
2019-01-18T11:09:14.098Z,22.55
2019-01-18T11:10:19.600Z,20.02
2019-01-18T11:11:24.983Z,20.72
2019-01-18T11:12:30.015Z,20.95
2019-01-18T11:13:35.037Z,21.00
2019-01-18T11:14:40.223Z,21.60
2019-01-18T11:15:45.474Z,19.92
2019-01-18T11:16:50.416Z,21.52
2019-01-18T11:17:55.897Z,18.75
2019-01-18T11:19:00.857Z,20.68
2019-01-18T11:20:12.622Z,20.92
2019-01-18T11:21:20.569Z,18.57
2019-01-18T11:22:25.670Z,18.32
2019-01-18T11:23:30.849Z,20.80
2019-01-18T11:24:36.120Z,19.73
2019-01-18T11:25:41.232Z,21.45
2019-01-18T11:26:46.190Z,20.80
2019-01-18T11:27:51.469Z,20.25
2019-01-18T11:28:56.510Z,20.60
2019-01-18T11:30:01.509Z,21.65
2019-01-18T11:31:06.651Z,21.50
2019-01-18T11:32:14.025Z,20.27
2019-01-18T11:33:18.942Z,21.05
2019-01-18T11:34:24.555Z,20.50
2019-01-18T11:35:29.832Z,20.80
2019-01-18T11:36:34.941Z,19.90
2019-01-18T11:37:40.235Z,21.57
2019-01-18T11:38:45.600Z,19.42
2019-01-18T11:39:50.617Z,21.00
2019-01-18T11:40:56.066Z,20.40
2019-01-18T11:42:05.232Z,21.30
2019-01-18T11:43:08.234Z,22.50
2019-01-18T11:44:13.192Z,21.73
2019-01-18T11:45:18.687Z,21.30
2019-01-18T11:46:23.684Z,22.13
2019-01-18T11:47:28.794Z,22.13
2019-01-18T11:48:33.943Z,21.15
2019-01-18T11:49:39.204Z,22.25
2019-01-18T11:50:44.281Z,21.93
2019-01-18T11:51:50.866Z,21.70
2019-01-18T11:52:56.332Z,23.52
2019-01-18T11:54:01.943Z,22.40
2019-01-18T11:55:07.343Z,21.82
2019-01-18T11:56:12.497Z,23.87
2019-01-18T11:57:17.451Z,23.10
2019-01-18T11:58:22.564Z,22.60
2019-01-18T11:59:27.933Z,21.42
2019-01-18T12:00:37.764Z,23.65
2019-01-18T12:01:40.079Z,23.45
2019-01-18T12:02:45.727Z,22.20
2019-01-18T12:03:50.753Z,20.85
2019-01-18T12:04:55.702Z,22.50
2019-01-18T12:06:01.619Z,23.27
2019-01-18T12:07:06.672Z,23.98
2019-01-18T12:08:11.891Z,22.80
2019-01-18T12:09:16.975Z,23.10
2019-01-18T12:10:24.661Z,22.45
2019-01-18T12:11:30.279Z,22.82
2019-01-18T12:12:35.419Z,23.22
2019-01-18T12:13:40.421Z,23.77
2019-01-18T12:14:45.426Z,21.12
2019-01-18T12:15:50.617Z,23.35
2019-01-18T12:16:56.400Z,22.87
2019-01-18T12:18:01.351Z,24.75
2019-01-18T12:19:06.841Z,22.80
2019-01-18T12:20:14.948Z,22.32
2019-01-18T12:21:20.285Z,26.25
2019-01-18T12:22:26.058Z,23.75
2019-01-18T12:23:32.512Z,22.80
2019-01-18T12:24:37.624Z,23.87
2019-01-18T12:25:42.693Z,24.32
2019-01-18T12:26:48.322Z,25.17
2019-01-18T12:27:53.625Z,26.40
2019-01-18T12:28:59.169Z,24.90
2019-01-18T12:30:05.169Z,23.90
2019-01-18T12:31:10.189Z,24.75
2019-01-18T12:32:15.848Z,25.08
2019-01-18T12:33:21.120Z,25.40
2019-01-18T12:34:27.428Z,24.95
2019-01-18T12:35:32.905Z,26.33
2019-01-18T12:36:38.016Z,23.47
2019-01-18T12:37:43.123Z,25.82
2019-01-18T12:38:48.499Z,25.10
2019-01-18T12:39:53.865Z,23.52
2019-01-18T12:40:58.900Z,24.12
2019-01-18T12:42:04.171Z,24.10
2019-01-18T12:43:09.845Z,24.40
2019-01-18T12:44:14.956Z,24.30
2019-01-18T12:45:21.645Z,25.00
2019-01-18T12:46:26.585Z,23.25
2019-01-18T12:47:31.555Z,23.73
2019-01-18T12:48:36.889Z,23.80
2019-01-18T12:49:42.316Z,23.42
2019-01-18T12:50:47.447Z,24.92
2019-01-18T12:51:52.668Z,26.00
2019-01-18T12:52:57.951Z,24.87
2019-01-18T12:54:03.226Z,24.47
2019-01-18T12:55:08.830Z,24.90
2019-01-18T12:56:14.105Z,25.50
2019-01-18T12:57:19.185Z,24.35
2019-01-18T12:58:24.236Z,24.80
2019-01-18T12:59:29.451Z,23.95
2019-01-18T13:00:35.334Z,24.40
2019-01-18T13:01:40.654Z,22.22
2019-01-18T13:02:46.356Z,22.22
2019-01-18T13:03:52.155Z,23.10
2019-01-18T13:04:57.261Z,24.23
2019-01-18T13:06:02.635Z,23.77
2019-01-18T13:07:07.794Z,23.60
2019-01-18T13:08:13.755Z,22.90
2019-01-18T13:09:18.827Z,23.25
2019-01-18T13:10:24.593Z,21.82
2019-01-18T13:11:30.443Z,23.67
2019-01-18T13:12:35.502Z,22.55
2019-01-18T13:13:41.301Z,22.32
2019-01-18T13:14:46.276Z,20.90
2019-01-18T13:16:27.480Z,21.35
2019-01-18T13:17:34.141Z,22.22
2019-01-18T13:18:40.605Z,23.07
2019-01-18T13:19:46.021Z,22.98
2019-01-18T13:20:51.098Z,22.25
2019-01-18T13:21:56.078Z,21.12
2019-01-18T13:23:01.103Z,22.93
2019-01-18T13:24:06.207Z,22.80
2019-01-18T13:25:12.751Z,23.55
2019-01-18T13:26:18.315Z,22.27
2019-01-18T13:27:23.661Z,22.93
2019-01-18T13:28:28.691Z,22.95
2019-01-18T13:29:34.025Z,24.90
2019-01-18T13:30:39.033Z,24.12
2019-01-18T13:31:44.714Z,23.70
2019-01-18T13:32:50.082Z,23.75
2019-01-18T13:33:55.200Z,24.18
2019-01-18T13:35:00.233Z,25.60
2019-01-18T13:36:09.501Z,25.62
2019-01-18T13:37:14.583Z,23.50
2019-01-18T13:38:20.307Z,23.73
2019-01-18T13:39:25.744Z,22.55
2019-01-18T13:40:30.851Z,23.12
2019-01-18T13:41:36.019Z,24.92
2019-01-18T13:42:41.408Z,22.95
2019-01-18T13:43:46.352Z,20.45
2019-01-18T13:44:51.746Z,23.35
2019-01-18T13:45:56.935Z,21.90
2019-01-18T13:47:02.072Z,21.62
2019-01-18T13:48:07.506Z,21.20
2019-01-18T13:49:12.811Z,24.80
2019-01-18T13:50:21.323Z,22.93
2019-01-18T13:51:26.743Z,23.07
2019-01-18T13:52:31.697Z,22.20
2019-01-18T13:53:37.426Z,21.95
2019-01-18T13:54:42.745Z,24.12
2019-01-18T13:55:47.968Z,24.15
2019-01-18T13:56:53.327Z,23.30
2019-01-18T13:57:59.170Z,22.55
2019-01-18T13:59:04.857Z,22.48
2019-01-18T14:00:10.988Z,22.22
2019-01-18T14:01:16.594Z,23.98
2019-01-18T14:02:22.459Z,23.77
2019-01-18T14:03:27.614Z,25.15
2019-01-18T14:04:32.885Z,23.27
2019-01-18T14:05:37.851Z,25.35
2019-01-18T14:06:42.942Z,24.20
2019-01-18T14:07:53.088Z,23.55
2019-01-18T14:08:55.925Z,25.45
2019-01-18T14:10:01.413Z,23.60
2019-01-18T14:11:13.722Z,22.82